Time;durP1;ratioP1;P1;durP2;ratioP2;P2;SDS_P1;SDS_P2;PMS_P1;PMS_P2;Temp;Humidity;BMP_temperature;BMP_pressure;BME280_temperature;BME280_humidity;BME280_pressure;Samples;Min_cycle;Max_cycle;Signal;HPM_P1;HPM_P2
2024/03/20 00:02:25;;;;;;;5.00;3.60;;;12.50;99.90;;;;;;5029928;28;20213;-67
2024/03/20 00:04:51;;;;;;;4.10;3.30;;;12.50;99.90;;;;;;5031390;28;20209;-67
2024/03/20 00:07:18;;;;;;;4.90;3.73;;;12.50;99.90;;;;;;5028300;28;20217;-68
2024/03/20 00:09:44;;;;;;;6.20;3.83;;;12.50;99.90;;;;;;5029275;28;20524;-66
2024/03/20 00:12:10;;;;;;;3.83;3.50;;;12.50;99.90;;;;;;5030890;28;20240;-68
2024/03/20 00:14:36;;;;;;;5.17;3.90;;;12.50;99.90;;;;;;5030856;28;20425;-67
2024/03/20 00:17:03;;;;;;;6.87;4.30;;;12.40;99.90;;;;;;5031431;28;20186;-67
2024/03/20 00:19:28;;;;;;;7.10;4.13;;;12.40;99.90;;;;;;5042323;28;20188;-67
2024/03/20 00:21:54;;;;;;;6.00;4.27;;;12.40;99.90;;;;;;5028325;28;20421;-66
2024/03/20 00:24:20;;;;;;;4.97;3.73;;;12.40;99.90;;;;;;5029662;28;20240;-67
2024/03/20 00:26:46;;;;;;;4.67;3.87;;;12.40;99.90;;;;;;5028796;28;20193;-69
2024/03/20 00:29:13;;;;;;;5.10;3.53;;;12.50;99.90;;;;;;5027812;28;20828;-66
2024/03/20 00:31:38;;;;;;;6.27;4.80;;;12.50;99.90;;;;;;5028876;28;20786;-66
2024/03/20 00:34:04;;;;;;;5.97;4.17;;;12.40;99.90;;;;;;5029492;28;20432;-66
2024/03/20 00:36:31;;;;;;;4.13;3.73;;;12.40;99.90;;;;;;5027035;28;20328;-66
2024/03/20 00:38:56;;;;;;;4.63;3.57;;;12.40;99.90;;;;;;5027837;28;20216;-69
2024/03/20 00:41:22;;;;;;;4.73;4.23;;;12.40;99.90;;;;;;5032592;28;20475;-66
2024/03/20 00:43:48;;;;;;;4.73;4.23;;;12.40;99.90;;;;;;5032664;28;20762;-67
2024/03/20 00:46:13;;;;;;;4.43;4.03;;;12.40;99.90;;;;;;5017935;28;20193;-68
2024/03/20 00:48:39;;;;;;;5.23;4.40;;;12.30;99.90;;;;;;5031752;28;20991;-69
2024/03/20 00:51:05;;;;;;;5.33;3.80;;;12.10;99.90;;;;;;5034168;28;20246;-68
2024/03/20 00:53:30;;;;;;;7.30;4.50;;;12.10;99.90;;;;;;5034491;28;20224;-68
2024/03/20 00:55:56;;;;;;;5.97;3.70;;;12.10;99.90;;;;;;5034790;28;20208;-67
2024/03/20 00:58:22;;;;;;;6.17;4.07;;;12.20;99.90;;;;;;5033401;28;20186;-67
2024/03/20 01:00:47;;;;;;;5.73;3.97;;;12.10;99.90;;;;;;5034272;28;20248;-67
2024/03/20 01:03:13;;;;;;;5.03;4.33;;;12.10;99.90;;;;;;5034705;28;20220;-67
2024/03/20 01:05:40;;;;;;;5.13;4.33;;;12.10;99.90;;;;;;5031996;28;20184;-68
2024/03/20 01:08:07;;;;;;;4.97;3.90;;;12.00;99.90;;;;;;5033269;28;20428;-67
2024/03/20 01:10:33;;;;;;;6.40;4.03;;;12.00;99.90;;;;;;5032384;28;20483;-67
2024/03/20 01:12:58;;;;;;;6.93;3.97;;;12.10;99.90;;;;;;5034294;28;21188;-68
2024/03/20 01:15:24;;;;;;;7.67;4.40;;;12.10;99.90;;;;;;5033851;28;20516;-68
2024/03/20 01:17:50;;;;;;;5.10;3.93;;;12.10;99.90;;;;;;5034224;28;20194;-68
2024/03/20 01:20:15;;;;;;;4.63;3.80;;;12.00;99.90;;;;;;5033518;28;20198;-68
2024/03/20 01:22:41;;;;;;;4.60;3.77;;;12.00;99.90;;;;;;5034401;28;20843;-68
2024/03/20 01:25:08;;;;;;;8.40;4.03;;;12.00;99.90;;;;;;5033056;28;20197;-68
2024/03/20 01:27:34;;;;;;;4.77;4.23;;;12.10;99.90;;;;;;5033941;28;20189;-69
2024/03/20 01:30:00;;;;;;;6.57;4.07;;;12.00;99.90;;;;;;5033008;28;20507;-69
2024/03/20 01:32:26;;;;;;;4.80;3.80;;;11.90;99.90;;;;;;5033392;28;20511;-67
2024/03/20 01:34:52;;;;;;;6.87;4.43;;;11.90;99.90;;;;;;5033270;28;20459;-69
2024/03/20 01:37:18;;;;;;;5.63;3.43;;;11.90;99.90;;;;;;5031884;28;20443;-67
2024/03/20 01:39:44;;;;;;;5.30;3.43;;;11.90;99.90;;;;;;5030124;28;20434;-67
2024/03/20 01:42:10;;;;;;;4.50;3.33;;;11.90;99.90;;;;;;5033208;28;20433;-67
2024/03/20 01:44:35;;;;;;;4.47;3.43;;;11.90;99.90;;;;;;5034268;28;20516;-66
2024/03/20 01:47:02;;;;;;;4.77;3.90;;;12.00;99.90;;;;;;5032885;28;20202;-69
2024/03/20 01:49:30;;;;;;;5.83;3.70;;;11.90;99.90;;;;;;5032973;28;20186;-68
2024/03/20 01:51:57;;;;;;;5.43;3.90;;;12.00;99.90;;;;;;5046632;28;20479;-69
2024/03/20 01:54:23;;;;;;;4.80;3.70;;;12.00;99.90;;;;;;5033572;28;20425;-67
2024/03/20 01:56:48;;;;;;;4.67;4.13;;;12.00;99.90;;;;;;5033978;28;20959;-69
2024/03/20 01:59:14;;;;;;;7.50;3.97;;;11.90;99.90;;;;;;5031951;28;20544;-67
2024/03/20 02:01:40;;;;;;;6.40;4.17;;;11.90;99.90;;;;;;5032752;28;20181;-66
2024/03/20 02:04:07;;;;;;;5.50;3.97;;;12.00;99.90;;;;;;5032814;28;20923;-68
2024/03/20 02:06:33;;;;;;;4.50;3.90;;;11.90;99.90;;;;;;5033540;28;20197;-67
2024/03/20 02:08:59;;;;;;;4.97;3.90;;;11.90;99.90;;;;;;5032844;28;20453;-68
2024/03/20 02:11:27;;;;;;;6.87;3.80;;;11.90;99.90;;;;;;5032219;28;20433;-69
2024/03/20 02:13:57;;;;;;;3.97;3.53;;;12.00;99.90;;;;;;5032996;28;20428;-68
2024/03/20 02:16:25;;;;;;;5.40;4.30;;;12.00;99.90;;;;;;5033442;28;20421;-67
2024/03/20 02:18:52;;;;;;;5.53;3.80;;;12.00;99.90;;;;;;5030794;28;20441;-66
2024/03/20 02:21:19;;;;;;;6.27;4.07;;;11.90;99.90;;;;;;5031004;28;20435;-67
2024/03/20 02:23:45;;;;;;;4.57;3.60;;;11.90;99.90;;;;;;5032161;28;20830;-69
2024/03/20 02:26:11;;;;;;;4.97;3.77;;;11.90;99.90;;;;;;5032776;28;20487;-67
2024/03/20 02:28:40;;;;;;;8.30;4.23;;;11.90;99.90;;;;;;5033683;28;20428;-69
2024/03/20 02:31:10;;;;;;;6.00;4.57;;;12.00;99.90;;;;;;5032919;28;20425;-68
2024/03/20 02:33:36;;;;;;;6.20;4.60;;;12.00;99.90;;;;;;5032881;28;20463;-67
2024/03/20 02:36:03;;;;;;;3.70;3.40;;;12.00;99.90;;;;;;5032510;28;20436;-69
2024/03/20 02:38:34;;;;;;;4.97;3.60;;;12.00;99.90;;;;;;5030569;28;20434;-68
2024/03/20 02:41:00;;;;;;;5.80;4.40;;;11.90;99.90;;;;;;5031934;28;20513;-67
2024/03/20 02:43:26;;;;;;;4.87;3.60;;;11.90;99.90;;;;;;5032479;28;20445;-66
2024/03/20 02:45:53;;;;;;;5.90;4.60;;;12.00;99.90;;;;;;5033028;28;20971;-69
2024/03/20 02:48:18;;;;;;;6.10;3.90;;;12.00;99.90;;;;;;5029958;28;21226;-67
2024/03/20 02:50:44;;;;;;;4.53;3.70;;;12.00;99.90;;;;;;5030196;28;20432;-68
2024/03/20 02:53:10;;;;;;;5.10;4.00;;;11.90;99.90;;;;;;5030519;28;20259;-67
2024/03/20 02:55:40;;;;;;;5.50;4.30;;;11.90;99.90;;;;;;5032498;28;20189;-67
2024/03/20 02:58:05;;;;;;;4.97;4.53;;;11.80;99.90;;;;;;5031914;28;20416;-67
2024/03/20 03:00:32;;;;;;;6.00;4.80;;;11.90;99.90;;;;;;5030270;28;20424;-67
2024/03/20 03:02:58;;;;;;;8.13;3.97;;;12.00;99.90;;;;;;5033049;28;20186;-68
2024/03/20 03:05:25;;;;;;;4.57;3.40;;;12.00;99.90;;;;;;5029477;28;20429;-66
2024/03/20 03:07:52;;;;;;;4.33;3.93;;;12.00;99.90;;;;;;5030739;28;20471;-66
2024/03/20 03:10:19;;;;;;;4.73;3.97;;;12.10;99.90;;;;;;5030662;28;20518;-65
2024/03/20 03:12:48;;;;;;;4.47;3.80;;;12.10;99.90;;;;;;5031608;28;20595;-67
2024/03/20 03:15:15;;;;;;;4.60;4.10;;;12.10;99.90;;;;;;5031127;28;20483;-67
2024/03/20 03:17:44;;;;;;;5.53;4.10;;;12.10;99.90;;;;;;5031110;28;20432;-67
2024/03/20 03:20:14;;;;;;;4.50;3.90;;;12.10;99.90;;;;;;5029875;28;20435;-66
2024/03/20 03:22:41;;;;;;;5.43;3.87;;;12.20;99.90;;;;;;5029976;28;20764;-66
2024/03/20 03:25:08;;;;;;;5.83;4.03;;;12.10;99.90;;;;;;5031508;28;20450;-66
2024/03/20 03:27:34;;;;;;;8.70;4.53;;;12.10;99.90;;;;;;5029662;28;20425;-66
2024/03/20 03:30:00;;;;;;;3.90;3.33;;;12.10;99.90;;;;;;5031457;28;20467;-67
2024/03/20 03:32:26;;;;;;;3.77;3.33;;;12.10;99.90;;;;;;5030093;28;20473;-67
2024/03/20 03:34:52;;;;;;;5.00;3.87;;;12.10;99.90;;;;;;5032006;28;20253;-67
2024/03/20 03:37:18;;;;;;;4.57;3.77;;;12.00;99.90;;;;;;5028928;28;20431;-66
2024/03/20 03:39:44;;;;;;;5.10;4.13;;;12.00;99.90;;;;;;5029474;28;20267;-68
2024/03/20 03:42:14;;;;;;;4.60;3.80;;;12.00;99.90;;;;;;5031379;28;20523;-65
2024/03/20 03:44:40;;;;;;;4.10;3.67;;;12.00;99.90;;;;;;5032805;28;20647;-67
2024/03/20 03:47:06;;;;;;;4.60;4.00;;;12.00;99.90;;;;;;5032375;28;20447;-67
2024/03/20 03:49:33;;;;;;;4.87;3.90;;;11.90;99.90;;;;;;5031800;28;20178;-69
2024/03/20 03:52:00;;;;;;;6.30;4.00;;;11.90;99.90;;;;;;5031333;28;20523;-68
2024/03/20 03:54:26;;;;;;;3.90;3.50;;;11.90;99.90;;;;;;5028794;28;20432;-66
2024/03/20 03:56:52;;;;;;;4.43;4.03;;;11.90;99.90;;;;;;5032010;28;20436;-66
2024/03/20 03:59:18;;;;;;;4.30;3.60;;;12.00;99.90;;;;;;5031452;28;20428;-66
2024/03/20 04:01:43;;;;;;;4.53;3.93;;;12.00;99.90;;;;;;5031586;28;20429;-68
2024/03/20 04:04:09;;;;;;;4.77;3.70;;;12.00;99.90;;;;;;5032786;28;20174;-68
2024/03/20 04:06:35;;;;;;;7.17;3.90;;;12.00;99.90;;;;;;5031207;28;20632;-68
2024/03/20 04:09:01;;;;;;;3.80;3.47;;;11.90;99.90;;;;;;5029855;28;20451;-67
2024/03/20 04:11:27;;;;;;;6.20;3.80;;;11.80;99.90;;;;;;5029887;28;20224;-66
2024/03/20 04:13:53;;;;;;;6.67;4.00;;;11.80;99.90;;;;;;5031878;28;20473;-66
2024/03/20 04:16:18;;;;;;;4.83;4.00;;;11.90;99.90;;;;;;5031450;28;20181;-68
2024/03/20 04:18:45;;;;;;;4.13;3.73;;;11.90;99.90;;;;;;5031692;28;20272;-67
2024/03/20 04:21:11;;;;;;;5.53;3.93;;;11.90;99.90;;;;;;5032331;28;20260;-68
2024/03/20 04:23:37;;;;;;;6.43;3.83;;;11.90;99.90;;;;;;5030847;28;20420;-66
2024/03/20 04:26:02;;;;;;;4.90;3.63;;;11.90;99.90;;;;;;5032528;28;20189;-68
2024/03/20 04:28:28;;;;;;;4.50;4.10;;;11.80;99.90;;;;;;5031265;28;20420;-68
2024/03/20 04:30:54;;;;;;;5.87;4.00;;;11.80;99.90;;;;;;5032126;28;20194;-68
2024/03/20 04:33:20;;;;;;;6.00;4.00;;;11.80;99.90;;;;;;5030541;28;20225;-66
2024/03/20 04:35:46;;;;;;;5.90;3.97;;;11.80;99.90;;;;;;5031852;28;21022;-67
2024/03/20 04:38:13;;;;;;;4.17;3.80;;;11.80;99.90;;;;;;5031707;28;20429;-66
2024/03/20 04:40:39;;;;;;;3.87;3.47;;;11.70;99.90;;;;;;5029696;28;20182;-68
2024/03/20 04:43:05;;;;;;;5.20;3.80;;;11.70;99.90;;;;;;5029887;28;20842;-67
2024/03/20 04:45:31;;;;;;;5.37;3.60;;;11.80;99.90;;;;;;5027909;28;20949;-67
2024/03/20 04:47:57;;;;;;;4.03;3.20;;;11.80;99.90;;;;;;5012715;28;20502;-68
2024/03/20 04:50:22;;;;;;;4.50;3.77;;;11.70;99.90;;;;;;5029848;28;20433;-65
2024/03/20 04:52:48;;;;;;;4.30;3.90;;;11.70;99.90;;;;;;5032120;28;21143;-68
2024/03/20 04:55:14;;;;;;;5.33;3.97;;;11.80;99.90;;;;;;5031595;28;20206;-66
2024/03/20 04:57:40;;;;;;;7.10;4.10;;;11.70;99.90;;;;;;5028562;28;20216;-66
2024/03/20 05:00:24;;;;;;;5.47;4.30;;;11.70;99.90;;;;;;5029913;28;20194;-68
2024/03/20 05:02:50;;;;;;;6.67;4.30;;;11.80;99.90;;;;;;5031995;28;20208;-67
2024/03/20 05:05:15;;;;;;;5.77;4.33;;;11.70;99.90;;;;;;5031066;28;20429;-67
2024/03/20 05:07:41;;;;;;;6.00;4.23;;;11.70;99.90;;;;;;5030263;28;20244;-67
2024/03/20 05:10:07;;;;;;;5.23;3.83;;;11.70;99.90;;;;;;5031943;28;20694;-67
2024/03/20 05:12:33;;;;;;;4.97;4.47;;;11.70;99.90;;;;;;5031182;28;20337;-67
2024/03/20 05:14:59;;;;;;;4.23;3.83;;;11.60;99.90;;;;;;5031433;28;20474;-66
2024/03/20 05:17:25;;;;;;;4.97;3.93;;;11.60;99.90;;;;;;5028622;28;20233;-66
2024/03/20 05:19:51;;;;;;;6.17;4.53;;;11.60;99.90;;;;;;5031758;28;20420;-67
2024/03/20 05:22:16;;;;;;;5.33;4.83;;;11.50;99.90;;;;;;5030060;28;20277;-66
2024/03/20 05:24:42;;;;;;;4.20;3.80;;;11.50;99.90;;;;;;5031457;28;20190;-67
2024/03/20 05:27:08;;;;;;;6.17;4.03;;;11.50;99.90;;;;;;5035157;28;20193;-68
2024/03/20 05:29:34;;;;;;;5.17;4.60;;;11.50;99.90;;;;;;5034131;28;20425;-67
2024/03/20 05:32:00;;;;;;;4.90;4.10;;;11.50;99.90;;;;;;5032881;28;20220;-66
2024/03/20 05:34:25;;;;;;;5.17;3.30;;;11.50;99.90;;;;;;5034118;28;20240;-66
2024/03/20 05:36:51;;;;;;;4.50;4.00;;;11.50;99.90;;;;;;5034413;28;20555;-68
2024/03/20 05:39:17;;;;;;;4.73;4.10;;;11.60;99.90;;;;;;5030808;28;20181;-66
2024/03/20 05:41:43;;;;;;;5.20;4.30;;;11.60;99.90;;;;;;5034379;28;20190;-68
2024/03/20 05:44:09;;;;;;;4.80;3.83;;;11.60;99.90;;;;;;5035352;28;20946;-66
2024/03/20 05:46:34;;;;;;;6.00;4.57;;;11.70;99.90;;;;;;5033941;28;20445;-67
2024/03/20 05:49:00;;;;;;;4.80;4.30;;;11.70;99.90;;;;;;5035020;28;20300;-66
2024/03/20 05:51:26;;;;;;;6.13;4.20;;;11.60;99.90;;;;;;5034024;28;20190;-66
2024/03/20 05:53:52;;;;;;;6.83;4.50;;;11.70;99.90;;;;;;5034134;28;20844;-68
2024/03/20 05:56:18;;;;;;;6.90;4.53;;;11.70;99.90;;;;;;5033215;28;20236;-66
2024/03/20 05:58:44;;;;;;;5.13;4.50;;;11.70;99.90;;;;;;5031967;28;20193;-67
2024/03/20 06:01:10;;;;;;;5.43;4.37;;;11.70;99.90;;;;;;5033170;28;20416;-68
2024/03/20 06:03:36;;;;;;;4.83;4.20;;;11.70;99.90;;;;;;5033800;28;20436;-66
2024/03/20 06:06:02;;;;;;;5.50;4.30;;;11.70;99.90;;;;;;5035418;28;20421;-66
2024/03/20 06:08:28;;;;;;;6.13;4.33;;;11.70;99.90;;;;;;5032867;28;20419;-66
2024/03/20 06:10:57;;;;;;;5.47;4.57;;;11.70;99.90;;;;;;5033336;28;20193;-67
2024/03/20 06:13:23;;;;;;;5.60;4.47;;;11.70;99.90;;;;;;5033781;28;20477;-66
2024/03/20 06:15:49;;;;;;;5.60;4.00;;;11.80;99.90;;;;;;5034419;28;20790;-66
2024/03/20 06:18:15;;;;;;;8.13;5.00;;;11.80;99.90;;;;;;5034592;28;20429;-67
2024/03/20 06:20:40;;;;;;;5.03;4.30;;;11.80;99.90;;;;;;5033269;28;20177;-66
2024/03/20 06:23:06;;;;;;;6.10;4.73;;;11.80;99.90;;;;;;5034762;28;20717;-67
2024/03/20 06:25:32;;;;;;;6.00;4.27;;;11.80;99.90;;;;;;5034461;28;20178;-66
2024/03/20 06:27:58;;;;;;;4.90;4.43;;;11.90;99.90;;;;;;5032922;28;20181;-68
2024/03/20 06:30:25;;;;;;;4.90;4.20;;;11.90;99.90;;;;;;5032951;28;20810;-66
2024/03/20 06:32:51;;;;;;;4.50;3.93;;;12.00;99.90;;;;;;5034345;28;20471;-65
2024/03/20 06:35:17;;;;;;;7.07;4.53;;;12.00;99.90;;;;;;5031573;28;20441;-66
2024/03/20 06:37:43;;;;;;;4.80;4.30;;;12.00;99.90;;;;;;5028720;28;20188;-67
2024/03/20 06:40:11;;;;;;;5.03;4.50;;;12.10;99.90;;;;;;5031781;28;20209;-65
2024/03/20 06:42:37;;;;;;;5.30;4.80;;;12.10;99.90;;;;;;5033039;28;20426;-66
2024/03/20 06:45:05;;;;;;;4.37;3.80;;;12.10;99.90;;;;;;5029534;28;20455;-67
2024/03/20 06:47:31;;;;;;;6.80;4.87;;;12.20;99.90;;;;;;5028415;28;20547;-68
2024/03/20 06:49:57;;;;;;;6.23;4.07;;;12.20;99.90;;;;;;5026820;28;21335;-68
2024/03/20 06:52:22;;;;;;;6.60;4.50;;;12.30;99.90;;;;;;5029784;28;21047;-66
2024/03/20 06:54:50;;;;;;;5.40;4.67;;;12.30;99.90;;;;;;5031066;28;20428;-66
2024/03/20 06:57:17;;;;;;;6.30;5.37;;;12.40;99.90;;;;;;5033721;28;20189;-66
2024/03/20 06:59:47;;;;;;;5.13;4.47;;;12.40;99.90;;;;;;5030856;28;20441;-68
2024/03/20 07:02:13;;;;;;;5.57;4.57;;;12.40;99.90;;;;;;5030693;28;20425;-68
2024/03/20 07:04:39;;;;;;;4.80;4.17;;;12.50;99.90;;;;;;5030582;28;20482;-68
2024/03/20 07:07:05;;;;;;;6.90;4.63;;;12.50;99.90;;;;;;5029068;28;20232;-67
2024/03/20 07:09:31;;;;;;;7.53;4.80;;;12.60;99.90;;;;;;5031967;28;20177;-68
2024/03/20 07:11:58;;;;;;;8.07;4.77;;;12.60;99.90;;;;;;5032305;28;20516;-65
2024/03/20 07:14:26;;;;;;;5.30;4.43;;;12.70;99.90;;;;;;5032929;28;20425;-67
2024/03/20 07:16:52;;;;;;;5.07;4.57;;;12.80;99.90;;;;;;5032182;28;20428;-66
2024/03/20 07:19:18;;;;;;;7.23;4.63;;;12.80;99.90;;;;;;5032244;28;20420;-67
2024/03/20 07:21:44;;;;;;;5.93;5.33;;;12.90;99.90;;;;;;5033233;28;20490;-66
2024/03/20 07:24:10;;;;;;;10.80;5.20;;;12.80;99.90;;;;;;5033017;28;20181;-66
2024/03/20 07:26:37;;;;;;;10.50;5.00;;;12.90;99.90;;;;;;5031903;28;20887;-67
2024/03/20 07:29:10;;;;;;;6.27;5.10;;;12.90;99.90;;;;;;5022651;28;20428;-67
2024/03/20 07:31:39;;;;;;;4.67;4.20;;;12.90;99.90;;;;;;5028751;28;20469;-67
2024/03/20 07:34:06;;;;;;;6.40;4.77;;;13.00;99.90;;;;;;5028700;28;21208;-65
2024/03/20 07:36:36;;;;;;;8.30;5.23;;;13.00;99.90;;;;;;5031541;28;20420;-66
2024/03/20 07:39:04;;;;;;;6.40;5.17;;;13.00;99.90;;;;;;5028157;28;20431;-66
2024/03/20 07:41:30;;;;;;;8.80;5.10;;;13.10;99.90;;;;;;5030082;28;20424;-66
2024/03/20 07:43:56;;;;;;;8.10;5.43;;;13.10;99.90;;;;;;5030028;28;20497;-65
2024/03/20 07:46:23;;;;;;;6.23;4.90;;;13.30;99.90;;;;;;5030459;28;20448;-68
2024/03/20 07:48:49;;;;;;;5.60;4.50;;;13.30;99.90;;;;;;5029392;28;20472;-67
2024/03/20 07:51:19;;;;;;;7.87;5.40;;;13.40;99.90;;;;;;5030541;28;20444;-66
2024/03/20 07:53:45;;;;;;;6.10;5.13;;;13.50;99.90;;;;;;5029966;28;20479;-66
2024/03/20 07:56:12;;;;;;;9.50;5.50;;;13.60;99.90;;;;;;5031478;28;20424;-65
2024/03/20 07:58:38;;;;;;;6.30;4.97;;;13.70;99.90;;;;;;5030816;28;20422;-67
2024/03/20 08:01:04;;;;;;;7.87;5.03;;;13.80;99.90;;;;;;5031399;28;20435;-68
2024/03/20 08:03:30;;;;;;;6.73;5.20;;;13.90;99.90;;;;;;5031514;28;20188;-67
2024/03/20 08:05:58;;;;;;;6.70;5.10;;;13.90;99.90;;;;;;5031688;28;20444;-67
2024/03/20 08:08:23;;;;;;;7.10;5.40;;;14.00;99.90;;;;;;5031202;28;21000;-67
2024/03/20 08:10:49;;;;;;;5.87;5.30;;;14.10;99.90;;;;;;5031486;28;20436;-67
2024/03/20 08:13:15;;;;;;;5.80;4.80;;;14.20;99.90;;;;;;5031952;28;20348;-67
2024/03/20 08:15:40;;;;;;;10.40;5.30;;;14.30;99.90;;;;;;5032301;28;20184;-67
2024/03/20 08:18:06;;;;;;;8.00;5.40;;;14.30;99.90;;;;;;5030577;28;20208;-66
2024/03/20 08:20:36;;;;;;;10.13;5.10;;;14.30;99.90;;;;;;5029008;28;20177;-66
2024/03/20 08:23:02;;;;;;;8.57;5.77;;;14.30;99.90;;;;;;5028521;28;20875;-67
2024/03/20 08:25:28;;;;;;;5.50;4.77;;;14.30;99.90;;;;;;5029050;28;20452;-66
2024/03/20 08:27:55;;;;;;;6.90;5.00;;;14.40;99.90;;;;;;5028988;28;20425;-70
2024/03/20 08:30:21;;;;;;;8.23;6.20;;;14.50;99.90;;;;;;5028008;28;20425;-68
2024/03/20 08:32:48;;;;;;;5.30;4.80;;;14.60;99.90;;;;;;5025573;28;20468;-67
2024/03/20 08:35:16;;;;;;;5.37;4.83;;;14.60;99.90;;;;;;5026545;28;21236;-68
2024/03/20 08:37:45;;;;;;;6.37;5.73;;;14.70;99.90;;;;;;5030421;28;20435;-66
2024/03/20 08:40:12;;;;;;;7.33;5.80;;;14.60;99.90;;;;;;5025173;28;20432;-67
2024/03/20 08:42:38;;;;;;;9.30;5.17;;;14.70;99.90;;;;;;5028500;28;20433;-66
2024/03/20 08:45:05;;;;;;;5.77;5.17;;;14.80;99.90;;;;;;5027520;28;20521;-67
2024/03/20 08:47:32;;;;;;;7.60;5.40;;;14.90;99.90;;;;;;5029451;28;20501;-66
2024/03/20 08:49:58;;;;;;;5.53;5.03;;;15.10;99.90;;;;;;5030151;28;20479;-67
2024/03/20 08:52:25;;;;;;;7.20;4.90;;;15.10;99.90;;;;;;5030536;28;21064;-66
2024/03/20 08:54:51;;;;;;;6.07;5.10;;;15.20;99.90;;;;;;5028738;28;20182;-67
2024/03/20 08:57:17;;;;;;;6.73;5.73;;;15.30;99.90;;;;;;5029980;28;20533;-69
2024/03/20 08:59:44;;;;;;;6.33;4.83;;;15.40;99.90;;;;;;5031065;28;20939;-67
2024/03/20 09:02:10;;;;;;;5.33;4.83;;;15.50;99.90;;;;;;5033721;28;20436;-70
2024/03/20 09:04:36;;;;;;;6.10;5.17;;;15.50;99.90;;;;;;5035022;28;20429;-69
2024/03/20 09:07:02;;;;;;;7.10;4.90;;;15.60;99.90;;;;;;5035174;28;20435;-69
2024/03/20 09:09:32;;;;;;;5.70;5.10;;;15.70;99.90;;;;;;5033842;28;20436;-67
2024/03/20 09:12:04;;;;;;;7.70;5.10;;;15.80;99.90;;;;;;5032873;28;20433;-66
2024/03/20 09:14:38;;;;;;;5.67;4.73;;;15.90;99.90;;;;;;5032933;28;20429;-67
2024/03/20 09:17:05;;;;;;;5.93;5.23;;;15.90;99.90;;;;;;5033101;28;20439;-67
2024/03/20 09:19:31;;;;;;;5.97;4.93;;;16.00;99.90;;;;;;5032218;28;20818;-68
2024/03/20 09:21:57;;;;;;;7.80;4.37;;;16.00;99.90;;;;;;5034711;28;20429;-66
2024/03/20 09:24:23;;;;;;;6.20;5.20;;;16.10;99.90;;;;;;5033240;28;20486;-68
2024/03/20 09:26:51;;;;;;;5.87;5.07;;;16.20;99.90;;;;;;5034735;28;20613;-69
2024/03/20 09:29:18;;;;;;;7.67;4.93;;;16.30;99.90;;;;;;5032826;28;20208;-67
2024/03/20 09:31:44;;;;;;;6.60;4.40;;;16.40;99.90;;;;;;5032455;28;20415;-67
2024/03/20 09:34:10;;;;;;;9.73;5.23;;;16.40;99.90;;;;;;5033192;28;20483;-68
2024/03/20 09:36:36;;;;;;;6.83;4.83;;;16.50;99.90;;;;;;5032629;28;20435;-66
2024/03/20 09:39:03;;;;;;;5.23;4.73;;;16.60;99.90;;;;;;5032552;28;20519;-68
2024/03/20 09:41:29;;;;;;;7.27;4.70;;;16.50;99.90;;;;;;5032736;28;21061;-69
2024/03/20 09:43:55;;;;;;;8.17;5.00;;;16.50;99.90;;;;;;5033378;28;20430;-69
2024/03/20 09:46:21;;;;;;;7.77;5.27;;;16.30;99.90;;;;;;5032256;28;20819;-69
2024/03/20 09:48:52;;;;;;;6.53;4.70;;;16.40;99.90;;;;;;5033949;28;20915;-67
2024/03/20 09:51:19;;;;;;;5.00;4.50;;;16.50;99.90;;;;;;5032327;28;20432;-69
2024/03/20 09:53:47;;;;;;;7.67;4.67;;;16.70;99.90;;;;;;5033064;28;20576;-68
2024/03/20 09:56:16;;;;;;;5.97;5.17;;;16.90;99.90;;;;;;5032130;28;20986;-67
2024/03/20 09:58:42;;;;;;;5.93;4.60;;;16.90;99.90;;;;;;5033682;28;20431;-68
2024/03/20 10:01:19;;;;;;;6.43;4.80;;;17.10;99.90;;;;;;5033519;28;20432;-69
2024/03/20 10:03:44;;;;;;;5.33;4.70;;;17.10;99.90;;;;;;5032141;28;20240;-69
2024/03/20 10:06:11;;;;;;;5.40;4.80;;;17.20;99.90;;;;;;5033442;28;20465;-68
2024/03/20 10:08:38;;;;;;;7.10;4.80;;;17.30;99.90;;;;;;5032338;28;20336;-68
2024/03/20 10:11:05;;;;;;;5.97;4.00;;;17.30;99.90;;;;;;5033441;28;20443;-69
2024/03/20 10:13:31;;;;;;;9.77;5.80;;;17.40;99.90;;;;;;5031063;28;20943;-68
2024/03/20 10:16:13;;;;;;;5.53;4.40;;;17.50;99.90;;;;;;5033607;28;20434;-70
2024/03/20 10:18:40;;;;;;;8.57;4.73;;;17.60;99.90;;;;;;5031763;28;20425;-69
2024/03/20 10:21:06;;;;;;;5.53;4.00;;;17.90;99.90;;;;;;5031888;28;20489;-69
2024/03/20 10:23:44;;;;;;;7.37;4.70;;;18.00;99.90;;;;;;5030566;28;20433;-67
2024/03/20 10:26:15;;;;;;;7.50;4.20;;;18.00;99.90;;;;;;5032113;28;20432;-68
2024/03/20 10:28:41;;;;;;;8.73;4.43;;;18.10;99.90;;;;;;5030307;28;20428;-69
2024/03/20 10:31:12;;;;;;;4.63;4.23;;;18.30;99.90;;;;;;5032677;28;20432;-67
2024/03/20 10:33:43;;;;;;;5.60;4.43;;;18.40;99.90;;;;;;5031894;28;20471;-69
2024/03/20 10:36:14;;;;;;;4.70;4.23;;;18.50;99.90;;;;;;5032923;28;20467;-66
2024/03/20 10:38:43;;;;;;;6.77;4.07;;;18.60;99.90;;;;;;5029892;28;21199;-68
2024/03/20 10:41:11;;;;;;;4.30;3.90;;;18.60;99.90;;;;;;5032605;28;20436;-68
2024/03/20 10:43:38;;;;;;;8.57;4.90;;;18.70;99.90;;;;;;5031139;28;21251;-69
2024/03/20 10:46:10;;;;;;;5.10;4.03;;;18.70;99.90;;;;;;5032230;28;20442;-69
2024/03/20 10:48:37;;;;;;;5.73;4.00;;;18.80;99.90;;;;;;5031077;28;20425;-69
2024/03/20 10:51:03;;;;;;;4.40;3.53;;;18.90;99.90;;;;;;5032441;28;20436;-69
2024/03/20 10:53:30;;;;;;;4.20;3.80;;;18.90;99.90;;;;;;5031412;28;20464;-68
2024/03/20 10:55:56;;;;;;;5.90;3.00;;;19.00;99.90;;;;;;5031421;28;20424;-68
2024/03/20 10:58:25;;;;;;;5.80;3.10;;;19.10;99.90;;;;;;5031681;28;20448;-68
2024/03/20 11:00:52;;;;;;;8.13;4.03;;;19.10;99.90;;;;;;5031203;28;20604;-69
2024/03/20 11:03:40;;;;;;;72.13;10.00;;;19.20;99.90;;;;;;5031077;28;20429;-69
2024/03/20 11:06:31;;;;;;;16.83;5.30;;;19.30;99.90;;;;;;5031440;28;20818;-69
2024/03/20 11:09:22;;;;;;;3.07;2.77;;;19.40;99.90;;;;;;5030588;28;20432;-69
2024/03/20 11:11:49;;;;;;;5.03;3.60;;;19.40;99.90;;;;;;5023215;28;20923;-68
2024/03/20 11:14:24;;;;;;;4.83;3.23;;;19.50;99.90;;;;;;5031734;28;20437;-67
2024/03/20 11:16:53;;;;;;;4.53;3.37;;;19.60;99.90;;;;;;5031314;28;20416;-68
2024/03/20 11:19:20;;;;;;;6.37;4.13;;;19.40;99.90;;;;;;5030753;28;20424;-68
2024/03/20 11:21:51;;;;;;;5.87;3.60;;;19.40;99.90;;;;;;5029708;28;20429;-67
2024/03/20 11:24:19;;;;;;;4.80;3.50;;;19.30;99.90;;;;;;5030991;28;20431;-68
2024/03/20 11:26:45;;;;;;;4.80;3.60;;;19.30;99.90;;;;;;5030750;28;20444;-69
2024/03/20 11:29:12;;;;;;;3.20;2.97;;;19.30;99.90;;;;;;5032145;28;20429;-69
2024/03/20 11:31:38;;;;;;;4.97;3.23;;;19.40;99.90;;;;;;5030624;28;20436;-67
2024/03/20 11:34:05;;;;;;;3.00;2.80;;;19.60;99.90;;;;;;5032662;28;20469;-67
2024/03/20 11:36:31;;;;;;;6.40;3.60;;;19.60;99.90;;;;;;5032375;28;20421;-70
2024/03/20 11:38:57;;;;;;;4.07;3.20;;;19.70;99.90;;;;;;5029541;28;20452;-69
2024/03/20 11:41:23;;;;;;;5.27;3.37;;;19.70;99.90;;;;;;5031400;28;20461;-66
2024/03/20 11:43:49;;;;;;;4.63;3.20;;;19.50;99.90;;;;;;5031045;28;20593;-66
2024/03/20 11:46:16;;;;;;;3.90;3.50;;;19.50;99.90;;;;;;5031367;28;20222;-69
2024/03/20 11:48:46;;;;;;;5.90;3.40;;;19.40;99.90;;;;;;5045484;28;20528;-69
2024/03/20 11:51:12;;;;;;;5.00;3.53;;;19.40;99.90;;;;;;5031075;28;20422;-69
2024/03/20 11:53:38;;;;;;;4.80;3.23;;;19.50;99.90;;;;;;5030959;28;20579;-68
2024/03/20 11:56:05;;;;;;;5.90;2.83;;;19.50;99.90;;;;;;5031121;28;20797;-67
2024/03/20 11:58:35;;;;;;;3.53;2.90;;;19.60;99.90;;;;;;5031390;28;20509;-68
2024/03/20 12:01:08;;;;;;;5.20;2.93;;;19.70;99.90;;;;;;5031025;28;21489;-67
2024/03/20 12:03:37;;;;;;;2.80;2.57;;;19.70;99.90;;;;;;5031103;28;20510;-70
2024/03/20 12:06:21;;;;;;;5.77;3.43;;;19.80;99.90;;;;;;5030556;28;20453;-70
2024/03/20 12:08:48;;;;;;;5.30;2.80;;;19.90;99.90;;;;;;5029086;28;20432;-69
2024/03/20 12:11:18;;;;;;;2.80;2.53;;;19.90;99.90;;;;;;5030088;28;20927;-68
2024/03/20 12:13:46;;;;;;;4.87;4.37;;;19.90;99.90;;;;;;5029794;28;20539;-68
2024/03/20 12:16:12;;;;;;;7.00;3.60;;;19.90;99.90;;;;;;5029557;28;20819;-68
2024/03/20 12:18:38;;;;;;;3.90;3.60;;;19.90;99.90;;;;;;5030036;28;20456;-69
2024/03/20 12:21:04;;;;;;;5.77;3.80;;;19.80;99.90;;;;;;5028983;28;20437;-67
2024/03/20 12:23:33;;;;;;;6.23;3.87;;;19.80;99.90;;;;;;5032139;28;20186;-69
2024/03/20 12:25:59;;;;;;;4.03;3.60;;;19.80;99.90;;;;;;5032031;28;20874;-69
2024/03/20 12:28:26;;;;;;;6.47;4.10;;;19.80;99.90;;;;;;5032696;28;20517;-68
2024/03/20 12:30:52;;;;;;;4.60;4.00;;;19.70;99.90;;;;;;5031373;28;20248;-69
2024/03/20 12:33:20;;;;;;;7.70;4.33;;;19.70;99.90;;;;;;5031609;28;20472;-68
2024/03/20 12:35:47;;;;;;;4.70;3.90;;;19.70;99.90;;;;;;5032589;28;20518;-68
2024/03/20 12:38:13;;;;;;;9.20;4.70;;;19.70;99.90;;;;;;5033611;28;20440;-68
2024/03/20 12:40:40;;;;;;;7.80;4.60;;;19.70;99.90;;;;;;5032758;28;20443;-66
2024/03/20 12:43:06;;;;;;;5.80;4.60;;;19.70;99.90;;;;;;5034359;28;20424;-68
2024/03/20 12:45:31;;;;;;;4.27;3.87;;;19.70;99.90;;;;;;5035140;28;20961;-68